sensor_id;sensor_type;location;lat;lon;timestamp;P1;durP1;ratioP1;P2;durP2;ratioP2
71475;SDS011;59286;59.274;17.974;2022-07-23T00:01:56;14.75;;;6.97;;
71475;SDS011;59286;59.274;17.974;2022-07-23T00:04:21;17.13;;;7.30;;
71475;SDS011;59286;59.274;17.974;2022-07-23T00:06:47;15.10;;;7.38;;
71475;SDS011;59286;59.274;17.974;2022-07-23T00:09:12;17.02;;;7.15;;
71475;SDS011;59286;59.274;17.974;2022-07-23T00:11:37;16.00;;;7.07;;
71475;SDS011;59286;59.274;17.974;2022-07-23T00:14:03;22.17;;;8.05;;
71475;SDS011;59286;59.274;17.974;2022-07-23T00:16:28;20.75;;;8.07;;
71475;SDS011;59286;59.274;17.974;2022-07-23T00:18:54;18.80;;;7.32;;
71475;SDS011;59286;59.274;17.974;2022-07-23T00:21:19;18.35;;;6.45;;
71475;SDS011;59286;59.274;17.974;2022-07-23T00:23:44;20.30;;;7.45;;
71475;SDS011;59286;59.274;17.974;2022-07-23T00:26:10;20.25;;;6.32;;
71475;SDS011;59286;59.274;17.974;2022-07-23T00:28:35;19.67;;;6.32;;
71475;SDS011;59286;59.274;17.974;2022-07-23T00:31:00;14.30;;;5.68;;
71475;SDS011;59286;59.274;17.974;2022-07-23T00:33:26;18.08;;;6.03;;
71475;SDS011;59286;59.274;17.974;2022-07-23T00:35:51;20.70;;;6.60;;
71475;SDS011;59286;59.274;17.974;2022-07-23T00:38:17;16.70;;;6.13;;
71475;SDS011;59286;59.274;17.974;2022-07-23T00:40:42;19.08;;;6.00;;
71475;SDS011;59286;59.274;17.974;2022-07-23T00:43:07;19.13;;;6.03;;
71475;SDS011;59286;59.274;17.974;2022-07-23T00:45:33;22.02;;;7.10;;
71475;SDS011;59286;59.274;17.974;2022-07-23T00:47:59;19.80;;;7.03;;
71475;SDS011;59286;59.274;17.974;2022-07-23T00:50:24;23.73;;;6.63;;
71475;SDS011;59286;59.274;17.974;2022-07-23T00:52:50;33.88;;;8.05;;
71475;SDS011;59286;59.274;17.974;2022-07-23T00:55:16;33.83;;;8.75;;
71475;SDS011;59286;59.274;17.974;2022-07-23T00:57:42;40.05;;;9.32;;
71475;SDS011;59286;59.274;17.974;2022-07-23T01:00:09;34.72;;;9.43;;
71475;SDS011;59286;59.274;17.974;2022-07-23T01:02:36;43.85;;;10.02;;
71475;SDS011;59286;59.274;17.974;2022-07-23T01:05:02;35.20;;;9.30;;
71475;SDS011;59286;59.274;17.974;2022-07-23T01:07:29;35.85;;;8.95;;
71475;SDS011;59286;59.274;17.974;2022-07-23T01:09:54;38.33;;;9.90;;
71475;SDS011;59286;59.274;17.974;2022-07-23T01:12:20;41.63;;;10.48;;
71475;SDS011;59286;59.274;17.974;2022-07-23T01:14:53;49.38;;;11.48;;
71475;SDS011;59286;59.274;17.974;2022-07-23T01:17:21;40.47;;;11.25;;
71475;SDS011;59286;59.274;17.974;2022-07-23T01:19:47;40.85;;;10.90;;
71475;SDS011;59286;59.274;17.974;2022-07-23T01:22:12;47.95;;;12.60;;
71475;SDS011;59286;59.274;17.974;2022-07-23T01:24:39;38.95;;;11.68;;
71475;SDS011;59286;59.274;17.974;2022-07-23T01:27:05;51.05;;;12.27;;
71475;SDS011;59286;59.274;17.974;2022-07-23T01:29:30;43.60;;;12.25;;
71475;SDS011;59286;59.274;17.974;2022-07-23T01:31:56;48.47;;;12.55;;
71475;SDS011;59286;59.274;17.974;2022-07-23T01:34:21;36.78;;;11.63;;
71475;SDS011;59286;59.274;17.974;2022-07-23T01:36:46;35.00;;;12.43;;
71475;SDS011;59286;59.274;17.974;2022-07-23T01:39:12;36.22;;;12.35;;
71475;SDS011;59286;59.274;17.974;2022-07-23T01:41:37;36.72;;;13.20;;
71475;SDS011;59286;59.274;17.974;2022-07-23T01:44:02;35.97;;;11.98;;
71475;SDS011;59286;59.274;17.974;2022-07-23T01:46:28;30.80;;;12.27;;
71475;SDS011;59286;59.274;17.974;2022-07-23T01:48:53;40.40;;;12.77;;
71475;SDS011;59286;59.274;17.974;2022-07-23T01:51:19;35.53;;;11.77;;
71475;SDS011;59286;59.274;17.974;2022-07-23T01:53:44;31.95;;;12.13;;
71475;SDS011;59286;59.274;17.974;2022-07-23T01:56:09;40.97;;;12.77;;
71475;SDS011;59286;59.274;17.974;2022-07-23T01:58:35;30.25;;;10.57;;
71475;SDS011;59286;59.274;17.974;2022-07-23T02:01:00;35.03;;;11.20;;
71475;SDS011;59286;59.274;17.974;2022-07-23T02:03:26;30.27;;;11.07;;
71475;SDS011;59286;59.274;17.974;2022-07-23T02:05:51;31.13;;;11.38;;
71475;SDS011;59286;59.274;17.974;2022-07-23T02:08:17;37.03;;;11.95;;
71475;SDS011;59286;59.274;17.974;2022-07-23T02:10:42;32.53;;;11.15;;
71475;SDS011;59286;59.274;17.974;2022-07-23T02:13:08;36.70;;;11.52;;
71475;SDS011;59286;59.274;17.974;2022-07-23T02:15:33;34.15;;;10.88;;
71475;SDS011;59286;59.274;17.974;2022-07-23T02:17:59;32.10;;;10.93;;
71475;SDS011;59286;59.274;17.974;2022-07-23T02:20:24;30.33;;;10.13;;
71475;SDS011;59286;59.274;17.974;2022-07-23T02:22:50;35.42;;;10.27;;
71475;SDS011;59286;59.274;17.974;2022-07-23T02:25:16;30.73;;;9.68;;
71475;SDS011;59286;59.274;17.974;2022-07-23T02:27:41;29.05;;;10.20;;
71475;SDS011;59286;59.274;17.974;2022-07-23T02:30:07;35.00;;;9.80;;
71475;SDS011;59286;59.274;17.974;2022-07-23T02:32:32;23.70;;;8.40;;
71475;SDS011;59286;59.274;17.974;2022-07-23T02:34:58;28.15;;;8.25;;
71475;SDS011;59286;59.274;17.974;2022-07-23T02:37:24;31.83;;;8.23;;
71475;SDS011;59286;59.274;17.974;2022-07-23T02:39:49;28.63;;;8.75;;
71475;SDS011;59286;59.274;17.974;2022-07-23T02:42:15;29.35;;;7.80;;
71475;SDS011;59286;59.274;17.974;2022-07-23T02:44:41;24.13;;;7.55;;
71475;SDS011;59286;59.274;17.974;2022-07-23T02:47:06;20.10;;;7.13;;
71475;SDS011;59286;59.274;17.974;2022-07-23T02:49:31;22.60;;;7.68;;
71475;SDS011;59286;59.274;17.974;2022-07-23T02:51:57;24.55;;;7.45;;
71475;SDS011;59286;59.274;17.974;2022-07-23T02:54:22;16.48;;;6.63;;
71475;SDS011;59286;59.274;17.974;2022-07-23T02:56:47;16.77;;;6.30;;
71475;SDS011;59286;59.274;17.974;2022-07-23T02:59:15;15.98;;;6.43;;
71475;SDS011;59286;59.274;17.974;2022-07-23T03:01:41;13.60;;;6.35;;
71475;SDS011;59286;59.274;17.974;2022-07-23T03:04:06;13.00;;;5.82;;
71475;SDS011;59286;59.274;17.974;2022-07-23T03:06:31;15.10;;;5.65;;
71475;SDS011;59286;59.274;17.974;2022-07-23T03:08:57;10.95;;;5.30;;
71475;SDS011;59286;59.274;17.974;2022-07-23T03:11:22;12.05;;;5.63;;
71475;SDS011;59286;59.274;17.974;2022-07-23T03:13:47;14.82;;;6.13;;
71475;SDS011;59286;59.274;17.974;2022-07-23T03:16:13;10.45;;;5.10;;
71475;SDS011;59286;59.274;17.974;2022-07-23T03:18:38;10.10;;;5.20;;
71475;SDS011;59286;59.274;17.974;2022-07-23T03:21:03;10.40;;;4.10;;
71475;SDS011;59286;59.274;17.974;2022-07-23T03:23:29;12.07;;;4.47;;
71475;SDS011;59286;59.274;17.974;2022-07-23T03:25:54;8.25;;;3.65;;
71475;SDS011;59286;59.274;17.974;2022-07-23T03:28:20;10.07;;;3.78;;
71475;SDS011;59286;59.274;17.974;2022-07-23T03:30:45;6.80;;;3.20;;
71475;SDS011;59286;59.274;17.974;2022-07-23T03:33:15;8.68;;;3.10;;
71475;SDS011;59286;59.274;17.974;2022-07-23T03:35:41;6.88;;;2.95;;
71475;SDS011;59286;59.274;17.974;2022-07-23T03:38:07;6.43;;;3.08;;
71475;SDS011;59286;59.274;17.974;2022-07-23T03:40:33;8.68;;;3.40;;
71475;SDS011;59286;59.274;17.974;2022-07-23T03:42:58;6.28;;;2.78;;
71475;SDS011;59286;59.274;17.974;2022-07-23T03:45:23;6.10;;;2.42;;
71475;SDS011;59286;59.274;17.974;2022-07-23T03:47:49;7.43;;;2.65;;
71475;SDS011;59286;59.274;17.974;2022-07-23T03:50:14;4.45;;;2.10;;
71475;SDS011;59286;59.274;17.974;2022-07-23T03:52:40;4.55;;;2.42;;
71475;SDS011;59286;59.274;17.974;2022-07-23T03:55:05;4.45;;;1.90;;
71475;SDS011;59286;59.274;17.974;2022-07-23T03:57:31;4.30;;;1.80;;
71475;SDS011;59286;59.274;17.974;2022-07-23T03:59:57;4.20;;;1.85;;
71475;SDS011;59286;59.274;17.974;2022-07-23T04:02:22;4.45;;;2.00;;
71475;SDS011;59286;59.274;17.974;2022-07-23T04:04:48;4.63;;;1.65;;
71475;SDS011;59286;59.274;17.974;2022-07-23T04:07:14;5.10;;;1.65;;
71475;SDS011;59286;59.274;17.974;2022-07-23T04:09:42;2.85;;;1.63;;
71475;SDS011;59286;59.274;17.974;2022-07-23T04:12:08;3.72;;;1.48;;
71475;SDS011;59286;59.274;17.974;2022-07-23T04:14:34;4.40;;;1.60;;
71475;SDS011;59286;59.274;17.974;2022-07-23T04:16:59;5.07;;;1.60;;
71475;SDS011;59286;59.274;17.974;2022-07-23T04:19:25;4.13;;;1.88;;
71475;SDS011;59286;59.274;17.974;2022-07-23T04:21:51;3.35;;;1.30;;
71475;SDS011;59286;59.274;17.974;2022-07-23T04:24:16;1.98;;;1.25;;
71475;SDS011;59286;59.274;17.974;2022-07-23T04:26:41;3.15;;;1.40;;
71475;SDS011;59286;59.274;17.974;2022-07-23T04:29:07;3.13;;;1.27;;
71475;SDS011;59286;59.274;17.974;2022-07-23T04:31:32;2.40;;;1.10;;
71475;SDS011;59286;59.274;17.974;2022-07-23T04:33:57;2.25;;;1.20;;
71475;SDS011;59286;59.274;17.974;2022-07-23T04:36:23;2.00;;;1.20;;
71475;SDS011;59286;59.274;17.974;2022-07-23T04:38:48;2.30;;;1.45;;
71475;SDS011;59286;59.274;17.974;2022-07-23T04:41:14;5.97;;;1.27;;
71475;SDS011;59286;59.274;17.974;2022-07-23T04:43:39;3.05;;;0.98;;
71475;SDS011;59286;59.274;17.974;2022-07-23T04:46:04;2.92;;;1.23;;
71475;SDS011;59286;59.274;17.974;2022-07-23T04:48:30;3.45;;;1.20;;
71475;SDS011;59286;59.274;17.974;2022-07-23T04:50:56;2.92;;;1.30;;
71475;SDS011;59286;59.274;17.974;2022-07-23T04:53:21;3.85;;;1.30;;
71475;SDS011;59286;59.274;17.974;2022-07-23T04:55:47;2.53;;;1.05;;
71475;SDS011;59286;59.274;17.974;2022-07-23T04:58:12;3.95;;;1.23;;
71475;SDS011;59286;59.274;17.974;2022-07-23T05:00:37;2.97;;;1.20;;
71475;SDS011;59286;59.274;17.974;2022-07-23T05:03:03;2.78;;;1.25;;
71475;SDS011;59286;59.274;17.974;2022-07-23T05:05:28;3.47;;;1.00;;
71475;SDS011;59286;59.274;17.974;2022-07-23T05:07:53;2.20;;;1.10;;
71475;SDS011;59286;59.274;17.974;2022-07-23T05:10:19;2.80;;;1.10;;
71475;SDS011;59286;59.274;17.974;2022-07-23T05:12:44;1.48;;;1.08;;
71475;SDS011;59286;59.274;17.974;2022-07-23T05:15:10;2.38;;;1.30;;
71475;SDS011;59286;59.274;17.974;2022-07-23T05:17:35;1.52;;;1.00;;
71475;SDS011;59286;59.274;17.974;2022-07-23T05:20:00;3.70;;;1.38;;
71475;SDS011;59286;59.274;17.974;2022-07-23T05:22:26;3.42;;;1.38;;
71475;SDS011;59286;59.274;17.974;2022-07-23T05:24:51;4.68;;;1.50;;
71475;SDS011;59286;59.274;17.974;2022-07-23T05:27:16;4.68;;;1.30;;
71475;SDS011;59286;59.274;17.974;2022-07-23T05:29:42;3.05;;;1.45;;
71475;SDS011;59286;59.274;17.974;2022-07-23T05:32:07;3.78;;;1.25;;
71475;SDS011;59286;59.274;17.974;2022-07-23T05:34:32;2.55;;;1.30;;
71475;SDS011;59286;59.274;17.974;2022-07-23T05:36:58;2.65;;;1.10;;
71475;SDS011;59286;59.274;17.974;2022-07-23T05:39:23;2.50;;;1.50;;
71475;SDS011;59286;59.274;17.974;2022-07-23T05:41:48;2.33;;;1.50;;
71475;SDS011;59286;59.274;17.974;2022-07-23T05:44:13;3.03;;;1.42;;
71475;SDS011;59286;59.274;17.974;2022-07-23T05:46:39;3.20;;;1.30;;
71475;SDS011;59286;59.274;17.974;2022-07-23T05:49:04;5.05;;;1.73;;
71475;SDS011;59286;59.274;17.974;2022-07-23T05:51:29;6.07;;;1.50;;
71475;SDS011;59286;59.274;17.974;2022-07-23T05:53:55;3.03;;;1.13;;
71475;SDS011;59286;59.274;17.974;2022-07-23T05:56:20;3.38;;;1.33;;
71475;SDS011;59286;59.274;17.974;2022-07-23T05:58:46;2.20;;;1.38;;
71475;SDS011;59286;59.274;17.974;2022-07-23T06:01:11;3.78;;;1.45;;
71475;SDS011;59286;59.274;17.974;2022-07-23T06:03:37;5.47;;;1.20;;
71475;SDS011;59286;59.274;17.974;2022-07-23T06:06:03;3.20;;;1.48;;
71475;SDS011;59286;59.274;17.974;2022-07-23T06:08:29;2.60;;;1.23;;
71475;SDS011;59286;59.274;17.974;2022-07-23T06:10:54;2.67;;;1.40;;
71475;SDS011;59286;59.274;17.974;2022-07-23T06:13:19;4.18;;;1.20;;
71475;SDS011;59286;59.274;17.974;2022-07-23T06:15:46;2.33;;;1.20;;
71475;SDS011;59286;59.274;17.974;2022-07-23T06:18:11;5.35;;;1.55;;
71475;SDS011;59286;59.274;17.974;2022-07-23T06:20:36;3.88;;;1.40;;
71475;SDS011;59286;59.274;17.974;2022-07-23T06:23:02;3.17;;;1.30;;
71475;SDS011;59286;59.274;17.974;2022-07-23T06:25:28;2.95;;;1.33;;
71475;SDS011;59286;59.274;17.974;2022-07-23T06:27:53;4.05;;;1.58;;
71475;SDS011;59286;59.274;17.974;2022-07-23T06:30:19;3.00;;;1.20;;
71475;SDS011;59286;59.274;17.974;2022-07-23T06:32:44;2.70;;;1.20;;
71475;SDS011;59286;59.274;17.974;2022-07-23T06:35:10;2.20;;;0.98;;
71475;SDS011;59286;59.274;17.974;2022-07-23T06:37:36;2.67;;;1.10;;
71475;SDS011;59286;59.274;17.974;2022-07-23T06:40:02;2.28;;;1.10;;
71475;SDS011;59286;59.274;17.974;2022-07-23T06:42:27;3.38;;;1.33;;
71475;SDS011;59286;59.274;17.974;2022-07-23T06:44:53;2.50;;;1.10;;
71475;SDS011;59286;59.274;17.974;2022-07-23T06:47:18;3.00;;;1.08;;
71475;SDS011;59286;59.274;17.974;2022-07-23T06:49:44;2.45;;;0.98;;
71475;SDS011;59286;59.274;17.974;2022-07-23T06:52:09;2.95;;;1.05;;
71475;SDS011;59286;59.274;17.974;2022-07-23T06:54:34;1.98;;;0.80;;
71475;SDS011;59286;59.274;17.974;2022-07-23T06:57:00;0.80;;;0.60;;
71475;SDS011;59286;59.274;17.974;2022-07-23T06:59:25;1.08;;;0.70;;
71475;SDS011;59286;59.274;17.974;2022-07-23T07:01:50;2.58;;;0.90;;
71475;SDS011;59286;59.274;17.974;2022-07-23T07:04:16;0.95;;;0.75;;
71475;SDS011;59286;59.274;17.974;2022-07-23T07:06:41;2.65;;;0.70;;
71475;SDS011;59286;59.274;17.974;2022-07-23T07:09:07;1.30;;;0.55;;
71475;SDS011;59286;59.274;17.974;2022-07-23T07:11:32;0.43;;;0.40;;
71475;SDS011;59286;59.274;17.974;2022-07-23T07:13:57;0.50;;;0.50;;
71475;SDS011;59286;59.274;17.974;2022-07-23T07:16:23;2.60;;;0.60;;
71475;SDS011;59286;59.274;17.974;2022-07-23T07:18:48;0.75;;;0.40;;
71475;SDS011;59286;59.274;17.974;2022-07-23T07:21:13;0.60;;;0.40;;
71475;SDS011;59286;59.274;17.974;2022-07-23T07:23:39;0.30;;;0.30;;
71475;SDS011;59286;59.274;17.974;2022-07-23T07:26:04;0.95;;;0.40;;
71475;SDS011;59286;59.274;17.974;2022-07-23T07:28:30;1.00;;;0.40;;
71475;SDS011;59286;59.274;17.974;2022-07-23T07:30:55;1.95;;;0.45;;
71475;SDS011;59286;59.274;17.974;2022-07-23T07:33:20;1.13;;;0.52;;
71475;SDS011;59286;59.274;17.974;2022-07-23T07:35:46;0.77;;;0.50;;
71475;SDS011;59286;59.274;17.974;2022-07-23T07:38:12;0.70;;;0.40;;
71475;SDS011;59286;59.274;17.974;2022-07-23T07:40:37;0.85;;;0.40;;
71475;SDS011;59286;59.274;17.974;2022-07-23T07:43:02;0.70;;;0.45;;
71475;SDS011;59286;59.274;17.974;2022-07-23T07:45:28;0.70;;;0.40;;
71475;SDS011;59286;59.274;17.974;2022-07-23T07:47:54;2.88;;;0.50;;
71475;SDS011;59286;59.274;17.974;2022-07-23T07:50:19;0.43;;;0.32;;
71475;SDS011;59286;59.274;17.974;2022-07-23T07:52:45;2.08;;;0.50;;
71475;SDS011;59286;59.274;17.974;2022-07-23T07:55:11;0.75;;;0.30;;
71475;SDS011;59286;59.274;17.974;2022-07-23T07:57:37;1.35;;;0.45;;
71475;SDS011;59286;59.274;17.974;2022-07-23T08:00:03;0.68;;;0.40;;
71475;SDS011;59286;59.274;17.974;2022-07-23T08:02:38;0.85;;;0.30;;
71475;SDS011;59286;59.274;17.974;2022-07-23T08:05:06;0.30;;;0.20;;
71475;SDS011;59286;59.274;17.974;2022-07-23T08:07:33;0.30;;;0.30;;
71475;SDS011;59286;59.274;17.974;2022-07-23T08:09:58;1.27;;;0.30;;
71475;SDS011;59286;59.274;17.974;2022-07-23T08:12:24;1.25;;;0.50;;
71475;SDS011;59286;59.274;17.974;2022-07-23T08:14:49;1.38;;;0.40;;
71475;SDS011;59286;59.274;17.974;2022-07-23T08:17:14;0.57;;;0.40;;
71475;SDS011;59286;59.274;17.974;2022-07-23T08:19:40;2.70;;;0.32;;
71475;SDS011;59286;59.274;17.974;2022-07-23T08:22:05;2.67;;;0.43;;
71475;SDS011;59286;59.274;17.974;2022-07-23T08:24:30;1.55;;;0.30;;
71475;SDS011;59286;59.274;17.974;2022-07-23T08:26:56;1.08;;;0.40;;
71475;SDS011;59286;59.274;17.974;2022-07-23T08:29:21;2.80;;;0.35;;
71475;SDS011;59286;59.274;17.974;2022-07-23T08:31:46;1.80;;;0.40;;
71475;SDS011;59286;59.274;17.974;2022-07-23T08:34:12;0.85;;;0.32;;
71475;SDS011;59286;59.274;17.974;2022-07-23T08:36:37;1.05;;;0.30;;
71475;SDS011;59286;59.274;17.974;2022-07-23T08:39:02;0.57;;;0.38;;
71475;SDS011;59286;59.274;17.974;2022-07-23T08:41:28;1.02;;;0.40;;
71475;SDS011;59286;59.274;17.974;2022-07-23T08:43:54;1.33;;;0.40;;
71475;SDS011;59286;59.274;17.974;2022-07-23T08:46:19;0.68;;;0.40;;
71475;SDS011;59286;59.274;17.974;2022-07-23T08:48:47;0.57;;;0.40;;
71475;SDS011;59286;59.274;17.974;2022-07-23T08:51:13;0.98;;;0.40;;
71475;SDS011;59286;59.274;17.974;2022-07-23T08:53:39;0.57;;;0.38;;
71475;SDS011;59286;59.274;17.974;2022-07-23T08:56:06;0.20;;;0.20;;
71475;SDS011;59286;59.274;17.974;2022-07-23T08:58:32;0.95;;;0.40;;
71475;SDS011;59286;59.274;17.974;2022-07-23T09:00:58;0.43;;;0.20;;
71475;SDS011;59286;59.274;17.974;2022-07-23T09:03:25;0.40;;;0.40;;
71475;SDS011;59286;59.274;17.974;2022-07-23T09:05:55;1.95;;;0.40;;
71475;SDS011;59286;59.274;17.974;2022-07-23T09:08:27;0.40;;;0.30;;
71475;SDS011;59286;59.274;17.974;2022-07-23T09:11:04;0.63;;;0.22;;
71475;SDS011;59286;59.274;17.974;2022-07-23T09:13:36;0.20;;;0.20;;
71475;SDS011;59286;59.274;17.974;2022-07-23T09:16:26;1.35;;;0.30;;
71475;SDS011;59286;59.274;17.974;2022-07-23T09:18:55;1.05;;;0.22;;
71475;SDS011;59286;59.274;17.974;2022-07-23T09:31:42;0.55;;;0.38;;
71475;SDS011;59286;59.274;17.974;2022-07-23T09:36:51;0.20;;;0.20;;
71475;SDS011;59286;59.274;17.974;2022-07-23T09:39:28;0.70;;;0.20;;
71475;SDS011;59286;59.274;17.974;2022-07-23T09:41:56;0.40;;;0.20;;
71475;SDS011;59286;59.274;17.974;2022-07-23T09:44:22;0.63;;;0.20;;
71475;SDS011;59286;59.274;17.974;2022-07-23T09:46:48;0.70;;;0.20;;
71475;SDS011;59286;59.274;17.974;2022-07-23T09:49:22;0.82;;;0.20;;
71475;SDS011;59286;59.274;17.974;2022-07-23T09:51:49;0.40;;;0.20;;
71475;SDS011;59286;59.274;17.974;2022-07-23T09:54:20;1.05;;;0.32;;
71475;SDS011;59286;59.274;17.974;2022-07-23T09:56:49;0.85;;;0.30;;
71475;SDS011;59286;59.274;17.974;2022-07-23T09:59:16;0.40;;;0.20;;
71475;SDS011;59286;59.274;17.974;2022-07-23T10:01:43;0.30;;;0.10;;
71475;SDS011;59286;59.274;17.974;2022-07-23T10:04:10;0.43;;;0.15;;
71475;SDS011;59286;59.274;17.974;2022-07-23T10:06:36;1.08;;;0.20;;
71475;SDS011;59286;59.274;17.974;2022-07-23T10:09:03;1.55;;;0.20;;
71475;SDS011;59286;59.274;17.974;2022-07-23T10:11:28;1.90;;;0.20;;
71475;SDS011;59286;59.274;17.974;2022-07-23T10:13:56;0.40;;;0.17;;
71475;SDS011;59286;59.274;17.974;2022-07-23T10:16:26;0.32;;;0.20;;
71475;SDS011;59286;59.274;17.974;2022-07-23T10:18:52;0.57;;;0.28;;
71475;SDS011;59286;59.274;17.974;2022-07-23T10:21:25;0.13;;;0.13;;
71475;SDS011;59286;59.274;17.974;2022-07-23T10:25:03;0.50;;;0.30;;
71475;SDS011;59286;59.274;17.974;2022-07-23T10:27:23;0.50;;;0.20;;
71475;SDS011;59286;59.274;17.974;2022-07-23T10:35:22;0.35;;;0.20;;
71475;SDS011;59286;59.274;17.974;2022-07-23T10:38:19;0.45;;;0.25;;
71475;SDS011;59286;59.274;17.974;2022-07-23T10:40:53;0.70;;;0.20;;
71475;SDS011;59286;59.274;17.974;2022-07-23T10:43:24;1.30;;;0.30;;
71475;SDS011;59286;59.274;17.974;2022-07-23T10:45:50;0.57;;;0.20;;
71475;SDS011;59286;59.274;17.974;2022-07-23T10:48:17;0.40;;;0.30;;
71475;SDS011;59286;59.274;17.974;2022-07-23T10:51:05;0.25;;;0.13;;
71475;SDS011;59286;59.274;17.974;2022-07-23T11:01:54;0.47;;;0.25;;
71475;SDS011;59286;59.274;17.974;2022-07-23T11:04:48;4.80;;;0.30;;
71475;SDS011;59286;59.274;17.974;2022-07-23T11:07:18;0.57;;;0.30;;
71475;SDS011;59286;59.274;17.974;2022-07-23T11:09:44;0.95;;;0.20;;
71475;SDS011;59286;59.274;17.974;2022-07-23T11:17:23;0.77;;;0.30;;
71475;SDS011;59286;59.274;17.974;2022-07-23T11:22:34;1.13;;;0.30;;
71475;SDS011;59286;59.274;17.974;2022-07-23T11:25:00;0.80;;;0.30;;
71475;SDS011;59286;59.274;17.974;2022-07-23T11:27:43;1.63;;;0.47;;
71475;SDS011;59286;59.274;17.974;2022-07-23T11:30:23;3.47;;;0.55;;
71475;SDS011;59286;59.274;17.974;2022-07-23T11:35:59;0.68;;;0.30;;
71475;SDS011;59286;59.274;17.974;2022-07-23T11:38:28;2.28;;;0.60;;
71475;SDS011;59286;59.274;17.974;2022-07-23T11:40:56;1.40;;;0.60;;
71475;SDS011;59286;59.274;17.974;2022-07-23T11:43:23;0.77;;;0.50;;
71475;SDS011;59286;59.274;17.974;2022-07-23T11:45:50;0.95;;;0.50;;
71475;SDS011;59286;59.274;17.974;2022-07-23T11:48:26;1.13;;;0.73;;
71475;SDS011;59286;59.274;17.974;2022-07-23T11:50:54;0.95;;;0.50;;
71475;SDS011;59286;59.274;17.974;2022-07-23T11:53:21;1.13;;;0.40;;
71475;SDS011;59286;59.274;17.974;2022-07-23T11:55:47;0.70;;;0.50;;
71475;SDS011;59286;59.274;17.974;2022-07-23T11:58:13;1.73;;;0.40;;
71475;SDS011;59286;59.274;17.974;2022-07-23T12:00:40;2.97;;;0.40;;
71475;SDS011;59286;59.274;17.974;2022-07-23T12:03:06;1.23;;;0.30;;
71475;SDS011;59286;59.274;17.974;2022-07-23T12:05:33;0.68;;;0.40;;
71475;SDS011;59286;59.274;17.974;2022-07-23T12:08:00;0.88;;;0.40;;
71475;SDS011;59286;59.274;17.974;2022-07-23T12:10:33;1.80;;;0.50;;
71475;SDS011;59286;59.274;17.974;2022-07-23T12:13:10;1.15;;;0.50;;
71475;SDS011;59286;59.274;17.974;2022-07-23T12:15:47;1.10;;;0.60;;
71475;SDS011;59286;59.274;17.974;2022-07-23T12:18:16;1.27;;;0.57;;
71475;SDS011;59286;59.274;17.974;2022-07-23T12:20:44;0.80;;;0.60;;
71475;SDS011;59286;59.274;17.974;2022-07-23T12:23:14;0.75;;;0.63;;
71475;SDS011;59286;59.274;17.974;2022-07-23T12:25:42;1.92;;;0.75;;
71475;SDS011;59286;59.274;17.974;2022-07-23T12:28:13;1.10;;;0.50;;
71475;SDS011;59286;59.274;17.974;2022-07-23T12:30:47;3.42;;;0.60;;
71475;SDS011;59286;59.274;17.974;2022-07-23T12:33:15;0.60;;;0.55;;
71475;SDS011;59286;59.274;17.974;2022-07-23T12:35:54;1.17;;;0.70;;
71475;SDS011;59286;59.274;17.974;2022-07-23T12:38:21;1.75;;;0.65;;
71475;SDS011;59286;59.274;17.974;2022-07-23T12:40:49;1.50;;;0.60;;
71475;SDS011;59286;59.274;17.974;2022-07-23T12:43:28;2.55;;;0.52;;
71475;SDS011;59286;59.274;17.974;2022-07-23T12:48:27;1.13;;;0.52;;
71475;SDS011;59286;59.274;17.974;2022-07-23T12:50:55;1.58;;;0.50;;
71475;SDS011;59286;59.274;17.974;2022-07-23T12:56:02;1.70;;;0.57;;
71475;SDS011;59286;59.274;17.974;2022-07-23T12:58:50;1.08;;;0.70;;
71475;SDS011;59286;59.274;17.974;2022-07-23T13:03:54;1.25;;;0.70;;
71475;SDS011;59286;59.274;17.974;2022-07-23T13:06:20;1.35;;;0.55;;
71475;SDS011;59286;59.274;17.974;2022-07-23T13:08:45;2.80;;;0.50;;
71475;SDS011;59286;59.274;17.974;2022-07-23T13:11:10;1.00;;;0.57;;
71475;SDS011;59286;59.274;17.974;2022-07-23T13:13:36;2.53;;;0.90;;
71475;SDS011;59286;59.274;17.974;2022-07-23T13:16:01;6.18;;;0.60;;
71475;SDS011;59286;59.274;17.974;2022-07-23T13:18:28;1.88;;;0.50;;
71475;SDS011;59286;59.274;17.974;2022-07-23T13:20:54;0.82;;;0.50;;
71475;SDS011;59286;59.274;17.974;2022-07-23T13:23:20;3.20;;;0.75;;
71475;SDS011;59286;59.274;17.974;2022-07-23T13:25:46;0.90;;;0.60;;
71475;SDS011;59286;59.274;17.974;2022-07-23T13:28:12;1.75;;;0.82;;
71475;SDS011;59286;59.274;17.974;2022-07-23T13:30:38;1.45;;;0.60;;
71475;SDS011;59286;59.274;17.974;2022-07-23T13:33:05;2.90;;;0.60;;
71475;SDS011;59286;59.274;17.974;2022-07-23T13:35:30;1.50;;;0.50;;
71475;SDS011;59286;59.274;17.974;2022-07-23T13:37:56;2.92;;;0.80;;
71475;SDS011;59286;59.274;17.974;2022-07-23T13:40:22;1.42;;;0.60;;
71475;SDS011;59286;59.274;17.974;2022-07-23T13:42:47;2.15;;;0.60;;
71475;SDS011;59286;59.274;17.974;2022-07-23T13:45:13;1.17;;;0.63;;
71475;SDS011;59286;59.274;17.974;2022-07-23T13:47:38;1.77;;;0.50;;
71475;SDS011;59286;59.274;17.974;2022-07-23T13:50:04;1.63;;;0.50;;
71475;SDS011;59286;59.274;17.974;2022-07-23T13:52:30;2.83;;;0.52;;
71475;SDS011;59286;59.274;17.974;2022-07-23T13:54:58;2.40;;;0.52;;
71475;SDS011;59286;59.274;17.974;2022-07-23T13:57:23;1.67;;;0.60;;
71475;SDS011;59286;59.274;17.974;2022-07-23T13:59:49;0.85;;;0.43;;
71475;SDS011;59286;59.274;17.974;2022-07-23T14:02:15;1.13;;;0.60;;
71475;SDS011;59286;59.274;17.974;2022-07-23T14:04:41;0.77;;;0.50;;
71475;SDS011;59286;59.274;17.974;2022-07-23T14:07:07;1.42;;;0.47;;
71475;SDS011;59286;59.274;17.974;2022-07-23T14:09:32;0.93;;;0.43;;
71475;SDS011;59286;59.274;17.974;2022-07-23T14:11:58;0.60;;;0.50;;
71475;SDS011;59286;59.274;17.974;2022-07-23T14:14:24;2.83;;;0.60;;
71475;SDS011;59286;59.274;17.974;2022-07-23T14:16:49;1.50;;;0.70;;
71475;SDS011;59286;59.274;17.974;2022-07-23T14:19:15;4.05;;;0.52;;
71475;SDS011;59286;59.274;17.974;2022-07-23T14:21:40;2.05;;;0.80;;
71475;SDS011;59286;59.274;17.974;2022-07-23T14:24:06;2.25;;;0.60;;
71475;SDS011;59286;59.274;17.974;2022-07-23T14:26:31;1.30;;;0.50;;
71475;SDS011;59286;59.274;17.974;2022-07-23T14:28:57;1.33;;;0.80;;
71475;SDS011;59286;59.274;17.974;2022-07-23T14:31:22;0.65;;;0.50;;
71475;SDS011;59286;59.274;17.974;2022-07-23T14:33:48;2.47;;;0.50;;
71475;SDS011;59286;59.274;17.974;2022-07-23T14:36:14;1.70;;;0.60;;
71475;SDS011;59286;59.274;17.974;2022-07-23T14:38:40;0.73;;;0.50;;
71475;SDS011;59286;59.274;17.974;2022-07-23T14:41:05;1.90;;;0.60;;
71475;SDS011;59286;59.274;17.974;2022-07-23T14:43:33;1.35;;;0.50;;
71475;SDS011;59286;59.274;17.974;2022-07-23T14:45:58;1.60;;;0.57;;
71475;SDS011;59286;59.274;17.974;2022-07-23T14:48:24;0.88;;;0.50;;
71475;SDS011;59286;59.274;17.974;2022-07-23T14:50:49;2.20;;;0.65;;
71475;SDS011;59286;59.274;17.974;2022-07-23T14:53:15;0.57;;;0.47;;
71475;SDS011;59286;59.274;17.974;2022-07-23T14:55:40;3.13;;;0.60;;
71475;SDS011;59286;59.274;17.974;2022-07-23T14:58:06;0.70;;;0.50;;
71475;SDS011;59286;59.274;17.974;2022-07-23T15:00:31;1.52;;;0.82;;
71475;SDS011;59286;59.274;17.974;2022-07-23T15:02:56;2.03;;;0.70;;
71475;SDS011;59286;59.274;17.974;2022-07-23T15:05:22;2.83;;;0.90;;
71475;SDS011;59286;59.274;17.974;2022-07-23T15:07:47;1.40;;;0.70;;
71475;SDS011;59286;59.274;17.974;2022-07-23T15:10:13;1.50;;;0.60;;
71475;SDS011;59286;59.274;17.974;2022-07-23T15:12:39;2.58;;;0.70;;
71475;SDS011;59286;59.274;17.974;2022-07-23T15:15:04;3.70;;;0.90;;